Time;durP1;ratioP1;P1;durP2;ratioP2;P2;SDS_P1;SDS_P2;PMS_P1;PMS_P2;Temp;Humidity;BMP_temperature;BMP_pressure;BME280_temperature;BME280_humidity;BME280_pressure;Samples;Min_cycle;Max_cycle;Signal;HPM_P1;HPM_P2
2022/02/10 00:21:47;;;;;;;5.13;2.40;;;;;;;1.39;62.46;99165.31;5024993;28;20061;-79
2022/02/10 00:34:58;;;;;;;4.63;3.28;;;;;;;1.20;62.85;99165.84;5029950;28;20043;-79
2022/02/10 00:37:35;;;;;;;3.58;2.50;;;;;;;1.25;62.58;99160.78;5047188;28;20127;-78
2022/02/10 00:42:32;;;;;;;3.72;2.47;;;;;;;1.24;63.22;99155.63;5061001;28;20082;-79
2022/02/10 00:44:58;;;;;;;4.97;2.65;;;;;;;1.27;62.49;99160.81;5044436;28;20037;-77
2022/02/10 00:47:26;;;;;;;4.43;2.78;;;;;;;1.26;62.88;99159.97;5046129;28;20044;-78
2022/02/10 00:49:52;;;;;;;5.05;2.80;;;;;;;1.27;62.94;99155.69;5043807;28;20044;-78
2022/02/10 00:52:19;;;;;;;4.30;2.67;;;;;;;1.29;63.13;99154.91;5055734;28;20107;-79
2022/02/10 00:54:44;;;;;;;3.70;2.67;;;;;;;1.32;62.90;99148.94;5046476;28;20045;-78
2022/02/10 00:57:12;;;;;;;4.68;2.50;;;;;;;1.38;62.57;99153.31;5065381;28;20044;-78
2022/02/10 00:59:59;;;;;;;5.25;2.45;;;;;;;1.06;62.74;99123.69;5037120;28;20037;-78
2022/02/10 01:10:48;;;;;;;3.67;2.58;;;;;;;1.22;63.01;99136.78;5053738;28;20076;-80
2022/02/10 01:13:43;;;;;;;4.82;2.60;;;;;;;1.37;62.92;99141.34;5038816;28;20037;-77
2022/02/10 01:29:42;;;;;;;2.58;1.80;;;;;;;1.53;62.65;99137.34;5068298;28;20030;-78
2022/02/10 01:32:08;;;;;;;3.35;2.10;;;;;;;1.54;62.16;99123.69;5069337;28;20029;-80
2022/02/10 01:34:40;;;;;;;3.30;1.70;;;;;;;1.55;62.67;99118.56;5051262;28;20040;-78
2022/02/10 01:37:06;;;;;;;4.40;1.83;;;;;;;1.64;62.59;99115.31;5021085;28;20033;-77
2022/02/10 01:39:36;;;;;;;2.67;1.60;;;;;;;1.43;62.12;99070.53;5034243;28;20512;-78
2022/02/10 01:42:42;;;;;;;2.67;1.60;;;;;;;1.77;61.93;99122.34;4997727;28;20045;-77
2022/02/10 02:03:17;;;;;;;3.28;1.65;;;;;;;1.91;61.09;99117.44;5037197;28;20052;-78
2022/02/10 02:04:07;;;;;;;2.35;1.58;;;;;;;1.87;60.77;99097.69;5041494;28;20060;-78
2022/02/10 02:06:41;;;;;;;2.53;1.50;;;;;;;1.80;60.64;99085.63;5043736;28;20037;-79
2022/02/10 02:09:11;;;;;;;3.45;1.73;;;;;;;1.85;60.53;99089.13;5043830;28;20069;-80
2022/02/10 02:11:40;;;;;;;3.90;1.67;;;;;;;1.97;60.90;99105.56;5043194;28;20044;-77
2022/02/10 02:14:12;;;;;;;1.67;1.30;;;;;;;1.97;60.85;99096.13;5043318;28;20085;-79
2022/02/10 02:16:53;;;;;;;3.22;1.10;;;;;;;2.01;60.80;99097.91;5011817;28;20065;-79
2022/02/10 02:19:19;;;;;;;1.65;1.20;;;;;;;1.99;60.46;99089.31;5028223;28;20041;-78
2022/02/10 02:21:46;;;;;;;1.73;1.30;;;;;;;2.02;60.53;99094.50;5042978;28;20131;-79
2022/02/10 02:24:15;;;;;;;1.52;1.17;;;;;;;2.09;60.00;99090.31;5024960;28;20497;-78
2022/02/10 02:26:42;;;;;;;3.47;1.20;;;;;;;1.92;59.84;99064.41;5042295;28;20041;-78
2022/02/10 02:29:11;;;;;;;2.35;1.10;;;;;;;1.98;59.97;99085.03;4994436;28;20124;-79
2022/02/10 02:31:45;;;;;;;3.00;1.40;;;;;;;1.93;60.18;99071.25;5029912;28;21069;-80
2022/02/10 02:39:52;;;;;;;4.53;2.60;;;;;;;2.14;59.88;99067.28;5014606;28;20055;-78
2022/02/10 03:06:52;;;;;;;5.30;2.72;;;;;;;2.04;58.64;99032.91;5021327;28;20040;-79
2022/02/10 03:09:24;;;;;;;5.53;2.40;;;;;;;2.05;58.82;99026.94;5028689;28;20052;-80
2022/02/10 03:11:49;;;;;;;4.20;1.98;;;;;;;2.04;58.42;99022.66;5012183;28;20040;-79
2022/02/10 03:14:21;;;;;;;4.55;1.40;;;;;;;2.05;58.20;99024.38;5034811;28;20406;-78
2022/02/10 04:15:51;;;;;;;1.92;1.20;;;;;;;1.56;58.50;98970.69;5014263;28;20067;-78
2022/02/10 04:23:50;;;;;;;2.67;1.13;;;;;;;1.61;58.64;98980.16;5012397;28;20075;-78
2022/02/10 04:40:22;;;;;;;2.75;1.13;;;;;;;1.64;58.80;98977.66;5042140;28;20045;-77
2022/02/10 05:01:18;;;;;;;4.05;1.30;;;;;;;1.47;59.09;98954.31;5026529;28;20390;-80
2022/02/10 05:17:44;;;;;;;5.97;2.90;;;;;;;1.43;59.35;98926.94;5048108;28;20041;-79
2022/02/10 05:33:47;;;;;;;9.07;4.10;;;;;;;1.46;59.82;98946.63;5042230;28;20056;-80
2022/02/10 05:36:16;;;;;;;8.98;3.38;;;;;;;1.47;59.73;98940.66;5026783;28;20036;-80
2022/02/10 05:38:51;;;;;;;7.43;2.80;;;;;;;1.48;60.12;98927.84;5011895;28;20068;-80
2022/02/10 05:49:23;;;;;;;3.25;1.60;;;;;;;1.68;59.87;98941.78;4995894;28;20514;-78
2022/02/10 06:50:22;;;;;;;3.72;1.60;;;;;;;2.34;59.45;98898.91;5039045;28;20037;-81
2022/02/10 07:03:52;;;;;;;2.92;1.67;;;;;;;2.92;58.72;98846.31;5053386;28;20041;-79
2022/02/10 07:49:11;;;;;;;3.85;1.92;;;;;;;3.67;57.02;98834.72;5019210;28;20084;-78
2022/02/10 08:01:00;;;;;;;6.00;2.17;;;;;;;3.47;57.04;98843.22;5030314;28;20041;-81
2022/02/10 08:56:24;;;;;;;6.47;3.58;;;;;;;4.37;59.72;98809.09;5036022;28;20040;-79
2022/02/10 09:56:57;;;;;;;7.22;3.78;;;;;;;3.24;62.80;98801.09;5030018;28;20054;-80
2022/02/10 10:02:43;;;;;;;5.75;3.17;;;;;;;2.85;62.80;98723.78;5026873;28;20094;-84
2022/02/10 10:05:31;;;;;;;5.05;3.33;;;;;;;1.88;63.44;98575.13;5013614;28;20969;-81
2022/02/10 10:11:06;;;;;;;7.85;3.78;;;;;;;3.03;63.20;98787.28;5044759;28;20164;-80
2022/02/10 10:14:04;;;;;;;6.55;3.47;;;;;;;1.55;63.68;98556.94;5025500;28;20037;-81
2022/02/10 10:22:26;;;;;;;7.55;4.15;;;;;;;1.76;64.33;98638.34;5032639;28;20056;-81
2022/02/10 10:53:06;;;;;;;6.03;3.85;;;;;;;1.66;65.95;98598.06;5037082;28;20037;-81
2022/02/10 10:56:23;;;;;;;5.80;4.10;;;;;;;2.59;65.93;98736.47;5043204;28;20072;-80
2022/02/10 11:39:19;;;;;;;8.00;3.95;;;;;;;3.20;66.17;98653.66;5037193;28;20065;-80
2022/02/10 11:42:26;;;;;;;8.40;4.28;;;;;;;4.35;66.07;98822.00;5056833;28;20051;-80
2022/02/10 11:48:14;;;;;;;8.20;3.97;;;;;;;3.25;65.58;98639.09;5059502;28;20049;-80
2022/02/10 14:09:17;;;;;;;5.90;2.88;;;;;;;3.63;63.33;98981.38;5014291;28;20041;-82
2022/02/10 14:17:07;;;;;;;4.35;2.40;;;;;;;3.71;63.51;98977.97;5046324;28;20045;-78
2022/02/10 14:27:39;;;;;;;3.45;1.75;;;;;;;3.23;63.58;98959.63;5032075;28;20049;-80
2022/02/10 14:30:08;;;;;;;3.25;1.90;;;;;;;3.07;64.40;98950.09;5005893;28;20499;-81
2022/02/10 14:32:40;;;;;;;4.15;1.67;;;;;;;2.60;64.57;98892.31;5036237;28;20062;-81
2022/02/10 14:35:14;;;;;;;;;;;;;;;3.16;64.63;99007.59;5050359;28;20040;-82
2022/02/10 14:41:00;;;;;;;6.95;2.28;;;;;;;2.71;64.74;98984.06;5029242;28;20439;-83
2022/02/10 15:16:14;;;;;;;7.78;2.60;;;;;;;1.50;66.57;98948.41;5061403;28;20050;-80
2022/02/10 15:18:02;;;;;;;5.13;2.58;;;;;;;1.79;66.79;99010.38;5050817;28;20818;-80
2022/02/10 15:54:02;;;;;;;4.90;1.90;;;;;;;2.41;66.83;99048.81;5028287;28;20044;-80
2022/02/10 16:17:53;;;;;;;3.17;2.08;;;;;;;1.99;66.46;98984.09;5036481;28;20048;-81
2022/02/10 16:20:22;;;;;;;2.65;1.85;;;;;;;1.68;66.92;98934.94;5038167;28;20792;-80
2022/02/10 16:23:01;;;;;;;5.10;2.13;;;;;;;2.47;66.82;99069.41;5040477;28;20044;-81
2022/02/10 16:25:31;;;;;;;5.75;1.98;;;;;;;1.98;66.89;98997.78;5024288;28;20056;-80
2022/02/10 16:28:10;;;;;;;2.80;1.75;;;;;;;1.84;66.88;98995.03;5026112;28;20433;-80
2022/02/10 16:30:47;;;;;;;5.57;2.03;;;;;;;2.17;66.99;99057.03;5038845;28;20067;-79
2022/02/10 16:33:17;;;;;;;6.50;2.22;;;;;;;2.18;66.78;99076.75;5013319;28;20500;-79
2022/02/10 16:36:00;;;;;;;3.95;1.70;;;;;;;2.09;67.15;99078.38;5043070;28;20088;-83
2022/02/10 16:38:28;;;;;;;4.57;1.85;;;;;;;1.93;67.08;99061.88;5052621;28;20420;-81
2022/02/10 16:40:57;;;;;;;3.95;1.63;;;;;;;1.85;66.65;99068.59;5039522;28;20040;-81
2022/02/10 16:43:24;;;;;;;5.07;2.13;;;;;;;1.09;67.16;98941.81;5050541;28;20037;-80
2022/02/10 16:45:55;;;;;;;5.15;2.60;;;;;;;1.80;67.07;99065.97;5029655;28;20072;-79
2022/02/10 16:48:22;;;;;;;6.90;3.10;;;;;;;1.40;66.67;99019.19;5063293;28;20121;-79
2022/02/10 16:50:48;;;;;;;4.00;2.30;;;;;;;1.10;67.00;98965.75;5058506;28;20045;-81
2022/02/10 16:53:18;;;;;;;6.60;3.47;;;;;;;1.58;66.92;99054.50;5055135;28;20037;-83
2022/02/10 16:55:56;;;;;;;6.63;2.72;;;;;;;0.80;67.29;98934.50;5037005;28;20041;-81
2022/02/10 17:17:59;;;;;;;4.80;1.85;;;;;;;1.33;66.80;99002.84;5055053;28;20047;-82
2022/02/10 17:32:16;;;;;;;6.35;2.55;;;;;;;1.61;67.50;99010.94;5024128;28;20063;-79
2022/02/10 17:44:32;;;;;;;6.55;3.15;;;;;;;1.22;67.26;98890.72;5043594;28;20044;-78
2022/02/10 17:53:43;;;;;;;2.92;1.50;;;;;;;2.57;66.33;99116.63;5048681;28;20401;-83
2022/02/10 17:56:23;;;;;;;4.32;1.38;;;;;;;1.73;66.55;98976.06;5042747;28;20092;-82
2022/02/10 17:59:12;;;;;;;2.15;1.40;;;;;;;1.97;66.53;99016.56;5038275;28;20025;-81
2022/02/10 18:01:42;;;;;;;2.78;1.50;;;;;;;2.08;66.75;98998.75;5020949;28;20520;-81
2022/02/10 18:04:12;;;;;;;1.38;1.00;;;;;;;2.60;66.77;99090.97;5025239;28;20405;-83
2022/02/10 18:06:44;;;;;;;3.78;1.55;;;;;;;2.75;66.38;99099.72;5040706;28;20071;-82
2022/02/10 18:09:50;;;;;;;3.08;1.45;;;;;;;2.53;65.89;99076.34;5058295;28;20052;-79
2022/02/10 18:15:05;;;;;;;4.07;1.70;;;;;;;1.45;65.78;98924.38;5026431;28;20045;-82
2022/02/10 18:17:58;;;;;;;2.90;1.58;;;;;;;2.58;65.79;99126.03;5012354;28;20071;-82
2022/02/10 18:20:41;;;;;;;4.47;2.22;;;;;;;2.16;65.87;99073.28;5041972;28;20048;-86
2022/02/10 18:34:28;;;;;;;7.50;2.83;;;;;;;2.29;65.65;99095.75;5061903;23;20088;-82
2022/02/10 19:09:24;;;;;;;5.20;2.08;;;;;;;2.36;65.24;99133.47;5023056;28;20069;-80
2022/02/10 19:11:57;;;;;;;4.30;2.08;;;;;;;2.11;65.19;99099.75;5022314;28;20041;-81
2022/02/10 19:14:24;;;;;;;5.07;2.20;;;;;;;1.61;65.02;99008.38;4990488;28;20077;-80
2022/02/10 19:16:54;;;;;;;5.80;2.00;;;;;;;2.39;65.19;99125.81;5003936;28;20048;-81
2022/02/10 19:19:23;;;;;;;6.32;2.00;;;;;;;2.00;64.84;99060.25;5022531;28;20046;-81
2022/02/10 19:21:53;;;;;;;4.30;1.92;;;;;;;2.35;65.07;99112.91;4970942;28;20050;-81
2022/02/10 19:24:19;;;;;;;4.25;1.70;;;;;;;2.24;64.82;99087.94;4970885;28;20104;-82
2022/02/10 19:27:08;;;;;;;4.28;1.75;;;;;;;2.40;64.57;99150.66;5005033;28;20042;-83
2022/02/10 19:29:41;;;;;;;8.30;2.78;;;;;;;1.92;64.14;99059.28;4993177;28;20033;-79
2022/02/10 19:32:13;;;;;;;4.88;2.67;;;;;;;1.69;64.19;99015.34;4994406;28;20141;-81
2022/02/10 19:34:46;;;;;;;5.50;2.00;;;;;;;2.38;64.06;99136.06;5010350;28;20046;-81
2022/02/10 19:37:34;;;;;;;;;;;;;;;;;;;;;
2022/02/10 19:40:10;;;;;;;4.50;2.33;;;;;;;1.65;64.31;99020.41;5006527;28;20033;-80
2022/02/10 19:43:19;;;;;;;6.07;2.25;;;;;;;1.37;63.88;98982.38;4995500;28;20131;-81
2022/02/10 19:46:30;;;;;;;7.75;2.30;;;;;;;2.37;63.94;99153.19;4943865;28;20478;-80
2022/02/10 19:49:44;;;;;;;6.25;2.35;;;;;;;1.31;63.64;98978.03;4993483;28;20046;-81
2022/02/10 19:52:52;;;;;;;5.43;1.80;;;;;;;1.49;63.50;99024.44;5019492;28;20041;-82
2022/02/10 19:56:13;;;;;;;5.53;1.60;;;;;;;1.85;63.30;99072.88;4995945;28;20513;-81
2022/02/10 19:58:41;;;;;;;5.10;1.80;;;;;;;1.20;63.34;98973.59;4980858;28;20053;-81
2022/02/10 20:01:08;;;;;;;3.38;1.50;;;;;;;1.87;63.38;99068.63;4981710;28;20062;-83
2022/02/10 20:03:39;;;;;;;3.78;1.55;;;;;;;2.18;63.04;99136.66;4976637;28;20065;-81
2022/02/10 20:06:09;;;;;;;3.90;1.80;;;;;;;1.85;63.06;99078.84;4998290;28;20042;-83
2022/02/10 20:08:36;;;;;;;3.08;1.60;;;;;;;1.03;62.94;98944.25;4995381;28;20089;-82
2022/02/10 20:11:08;;;;;;;2.70;1.40;;;;;;;1.20;63.44;98983.88;5002465;28;20045;-82
2022/02/10 20:14:06;;;;;;;3.47;1.40;;;;;;;1.12;62.90;98976.84;4990365;28;20038;-84
2022/02/10 20:25:20;;;;;;;2.58;1.35;;;;;;;1.40;62.55;99041.41;4756312;30;20291;-81
2022/02/10 20:27:51;;;;;;;2.30;1.05;;;;;;;1.65;62.57;99099.94;4739472;30;20051;-83
2022/02/10 20:30:17;;;;;;;3.88;1.42;;;;;;;2.08;63.23;99157.91;4772802;29;20047;-81
2022/02/10 20:32:43;;;;;;;4.20;1.30;;;;;;;1.25;62.62;99042.88;4791487;29;20058;-80
2022/02/10 20:38:30;;;;;;;3.08;1.10;;;;;;;1.45;62.86;99068.81;4886224;29;20052;-81
2022/02/10 20:41:12;;;;;;;2.30;0.93;;;;;;;1.95;62.56;99167.97;4887878;29;20131;-81
2022/02/10 20:43:56;;;;;;;1.95;1.10;;;;;;;1.32;63.08;99072.03;4887875;29;20092;-82
2022/02/10 20:46:31;;;;;;;5.38;1.30;;;;;;;1.17;62.84;99029.06;4992383;28;20050;-83
2022/02/10 20:48:57;;;;;;;5.45;1.38;;;;;;;1.50;62.61;99095.41;4981824;28;20481;-81
2022/02/10 20:51:23;;;;;;;2.00;1.38;;;;;;;1.87;63.18;99153.31;4982194;28;20049;-80
2022/02/10 20:53:55;;;;;;;6.72;1.42;;;;;;;1.72;62.98;99129.09;4984949;28;20041;-83
2022/02/10 20:56:21;;;;;;;2.63;1.30;;;;;;;1.38;62.97;99074.72;5003487;28;20410;-81
2022/02/10 20:58:57;;;;;;;6.53;1.38;;;;;;;1.52;63.05;99107.41;5021727;28;20429;-80
2022/02/10 21:01:44;;;;;;;5.70;1.30;;;;;;;1.11;62.53;99049.44;5024331;28;20048;-80
2022/02/10 21:04:39;;;;;;;6.82;1.20;;;;;;;0.62;63.16;98977.72;4974268;28;20050;-82
2022/02/10 21:07:41;;;;;;;3.15;1.40;;;;;;;1.15;63.02;99056.38;4999571;28;20050;-81
2022/02/10 21:10:13;;;;;;;4.38;1.60;;;;;;;1.83;62.73;99165.19;4998870;28;20053;-80
2022/02/10 21:12:42;;;;;;;6.18;1.60;;;;;;;1.30;62.87;99076.28;4981147;28;20049;-81
2022/02/10 21:15:17;;;;;;;5.47;1.40;;;;;;;1.85;63.32;99171.22;4964622;28;20030;-79
2022/02/10 21:17:48;;;;;;;4.22;1.42;;;;;;;0.72;62.63;98983.03;4979192;28;20046;-81
2022/02/10 21:20:28;;;;;;;3.20;1.38;;;;;;;0.98;62.87;99020.22;4977793;28;20045;-79
2022/02/10 21:23:04;;;;;;;2.75;1.20;;;;;;;1.27;62.56;99084.78;4994348;28;20050;-78
2022/02/10 21:25:36;;;;;;;3.95;1.35;;;;;;;1.38;62.13;99095.22;4977002;28;20046;-79
2022/02/10 21:28:14;;;;;;;;;;;;;;;1.78;62.31;99164.25;4964744;28;20592;-79
2022/02/10 21:30:44;;;;;;;3.95;1.30;;;;;;;1.66;62.46;99164.91;4996285;28;19918;-81
2022/02/10 21:36:31;;;;;;;3.50;1.27;;;;;;;1.36;62.43;99091.78;4960934;28;20042;-79
2022/02/10 21:38:37;;;;;;;3.40;1.27;;;;;;;1.75;62.35;99170.22;4993164;28;20050;-81
2022/02/10 22:01:32;;;;;;;3.03;1.42;;;;;;;1.53;62.25;99157.84;4994472;28;20041;-79
2022/02/10 22:22:00;;;;;;;2.75;0.80;;;;;;;0.44;62.05;98961.19;4978418;28;20133;-82
2022/02/10 22:24:26;;;;;;;2.28;0.90;;;;;;;1.61;62.34;99151.16;4967652;28;20049;-78
2022/02/10 22:26:53;;;;;;;3.38;0.95;;;;;;;0.38;62.44;98963.63;4948643;28;20073;-82
2022/02/10 22:36:46;;;;;;;1.77;0.93;;;;;;;1.40;62.05;99121.75;4994733;28;20084;-82
2022/02/10 22:39:14;;;;;;;2.90;1.13;;;;;;;1.17;62.62;99082.88;4978986;28;20046;-79
2022/02/10 22:41:41;;;;;;;1.38;0.75;;;;;;;1.59;62.32;99163.94;4995539;28;20052;-81
2022/02/10 22:44:07;;;;;;;3.10;1.00;;;;;;;1.26;62.32;99107.81;5011968;28;20042;-83
2022/02/10 22:46:36;;;;;;;2.65;0.70;;;;;;;1.48;62.21;99132.13;4978651;28;20050;-81
2022/02/10 22:49:02;;;;;;;1.70;0.90;;;;;;;1.45;62.40;99127.81;4978166;28;20042;-78
2022/02/10 22:51:32;;;;;;;1.80;0.85;;;;;;;1.71;62.82;99162.44;4994783;28;20053;-80
2022/02/10 22:53:58;;;;;;;2.85;1.00;;;;;;;1.46;62.41;99113.31;4994899;28;20042;-81
2022/02/10 22:56:28;;;;;;;1.27;0.73;;;;;;;1.42;62.23;99114.06;4978143;28;20053;-78
2022/02/10 22:59:00;;;;;;;1.13;0.50;;;;;;;1.68;62.61;99158.09;4993831;28;20038;-79
2022/02/10 23:01:26;;;;;;;;;;;;;;;1.71;62.10;99159.88;4962705;28;20129;-79
2022/02/10 23:03:53;;;;;;;6.63;1.10;;;;;;;1.58;62.11;99140.84;5012156;28;19960;-82
2022/02/10 23:06:19;;;;;;;2.55;0.88;;;;;;;1.55;62.36;99140.78;4994739;28;20493;-79
2022/02/10 23:08:45;;;;;;;3.53;0.95;;;;;;;1.62;62.16;99160.59;5012373;28;20545;-80
2022/02/10 23:11:15;;;;;;;2.90;0.73;;;;;;;1.65;62.54;99153.81;4994848;28;20046;-82
2022/02/10 23:13:46;;;;;;;4.38;0.70;;;;;;;1.61;62.64;99157.16;4999142;28;20046;-80
2022/02/10 23:16:15;;;;;;;2.88;0.98;;;;;;;1.67;62.70;99161.50;4998781;28;20044;-81
2022/02/10 23:18:45;;;;;;;1.77;1.00;;;;;;;1.63;62.92;99144.38;4984256;28;20041;-82
2022/02/10 23:21:15;;;;;;;2.42;0.80;;;;;;;1.68;62.19;99155.53;4978417;28;20037;-80
2022/02/10 23:23:45;;;;;;;1.88;0.88;;;;;;;1.66;62.09;99164.91;5004884;28;20069;-80
2022/02/10 23:26:13;;;;;;;1.48;0.70;;;;;;;1.58;62.18;99151.13;5011128;28;20044;-79
2022/02/10 23:28:58;;;;;;;4.22;1.00;;;;;;;1.48;62.63;99135.56;5018235;28;20042;-80
2022/02/10 23:31:27;;;;;;;2.63;0.82;;;;;;;1.62;62.48;99151.19;4997820;28;20037;-80
2022/02/10 23:34:02;;;;;;;2.80;1.10;;;;;;;1.49;62.25;99121.91;4997293;28;20062;-79
2022/02/10 23:36:54;;;;;;;2.10;1.20;;;;;;;1.48;62.16;99119.31;4981898;28;20049;-79
2022/02/10 23:39:27;;;;;;;1.58;0.80;;;;;;;1.65;62.26;99137.56;5015260;28;20076;-79
2022/02/10 23:42:04;;;;;;;4.70;1.20;;;;;;;1.59;62.57;99135.75;5015193;28;20491;-78
2022/02/10 23:44:37;;;;;;;3.42;0.90;;;;;;;1.68;62.23;99147.00;4980848;28;20038;-79
2022/02/10 23:47:06;;;;;;;3.30;0.80;;;;;;;1.54;62.42;99133.94;4964618;28;20101;-78
2022/02/10 23:49:34;;;;;;;2.92;1.00;;;;;;;1.51;62.47;99124.50;5014601;28;20073;-80
2022/02/10 23:52:03;;;;;;;2.45;0.80;;;;;;;1.55;62.50;99140.78;5014457;28;20044;-80
2022/02/10 23:54:34;;;;;;;3.40;1.20;;;;;;;1.54;62.67;99150.22;4997598;28;20041;-81
2022/02/10 23:57:09;;;;;;;3.50;1.20;;;;;;;1.50;62.60;99151.84;5014481;28;20464;-77
